Airfield :
LOGIN :

Register | Disclaimer

   EN    FR    IT 

 










Legend :    VFR   Marginal VFR   IFR   Intensive IFR   Very Intensive IFR
Visi :
Ceiling :
>= 8 km
>= 3000ft
5 to 8 km
1000 to 3000 ft
1500m to 5 km
500 to 1000 ft
800 to 1500m
200 to 500 ft
< 800m
< 200 ft
Symbols :   Thunderstorms  Fog  Heavy snow  Heavy precipitations  Wind > 20 kt
SIGMETs :     Misc.  Thunderstorms  Icing  Turbulence  Mountain Waves  Volcanic Ashes






- Airport Elevation : 1197 ft
- IATA code : SPM


ETAD - Spangdahlem Ab

CURRENT METAR :
  • 281556Z AUTO 03013KT 9999 CLR 21/00 A3037 RMK AO2 SLP268 T02061001 $

EXPIRED METARs :
  • 281456Z AUTO 04012G20KT 9999 CLR 21/01 A3038 RMK AO2 SLP271 T02090007 57013 $
  • 281356Z AUTO 07016G20KT 9999 CLR 21/03 A3040 RMK AO2 SLP278 T02080026 $
  • 281315Z AUTO 02012G17KT 9999 CLR 20/02 A3041 RMK AO2 WSHFT 07 SLP282 $

TAF TAF ETAD
Valid from the 28 at 12:00 until the 29 at 18:00 UTC


281200Z 2812/2918 05012G18KT 9999 FEW050 QNH3028INS WND 05009KT AFT 2817
BECMG 2907/2908 05010G15KT 9999 SKC QNH3025INS TX22/2815Z TN08/2904Z



MET'MAP, your aeronautical weather chart ! - Copyright ORBIFLY December 2007 - Disclaimer

ORBIFLY MET'MAP TEAM :

Programming & Development : Alexandra Zaïnal
Concept & original design : Baudouin d'Aumeries
Assistance for programming : Marc-Olivier Méhu
Technical & hardware support : Manuel Goepfert

Contact : metmap@orbifly.com




SOURCES & CREDITS :

   NOAA